Time;durP1;ratioP1;P1;durP2;ratioP2;P2;SDS_P1;SDS_P2;PMS_P1;PMS_P2;Temp;Humidity;BMP_temperature;BMP_pressure;BME280_temperature;BME280_humidity;BME280_pressure;Samples;Min_cycle;Max_cycle;Signal;HPM_P1;HPM_P2
2022/08/09 00:01:16;;;;;;;7.70;4.20;;;16.60;99.90;;;;;;5035516;28;20047;-59
2022/08/09 00:03:42;;;;;;;5.65;3.80;;;16.60;99.90;;;;;;5051587;28;20029;-59
2022/08/09 00:06:08;;;;;;;5.40;4.15;;;16.60;99.90;;;;;;5036992;28;20052;-58
2022/08/09 00:08:33;;;;;;;5.90;4.15;;;16.60;99.90;;;;;;5044357;28;20099;-59
2022/08/09 00:11:00;;;;;;;7.07;4.35;;;16.50;99.90;;;;;;5045487;28;20041;-59
2022/08/09 00:13:26;;;;;;;10.18;4.75;;;16.50;99.90;;;;;;5031828;28;20041;-59
2022/08/09 00:15:52;;;;;;;8.23;4.65;;;16.40;99.90;;;;;;5032948;28;20056;-58
2022/08/09 00:18:18;;;;;;;7.53;5.22;;;16.40;99.90;;;;;;5035391;28;20045;-59
2022/08/09 00:20:43;;;;;;;8.77;5.00;;;16.40;99.90;;;;;;5042130;28;20065;-59
2022/08/09 00:23:09;;;;;;;8.80;5.07;;;16.30;99.90;;;;;;5045314;28;20100;-58
2022/08/09 00:25:34;;;;;;;7.90;4.82;;;16.30;99.90;;;;;;5041285;28;20363;-59
2022/08/09 00:28:00;;;;;;;6.47;4.50;;;16.30;99.90;;;;;;5041056;28;20137;-59
2022/08/09 00:30:26;;;;;;;6.78;5.10;;;16.20;99.90;;;;;;5035655;28;20196;-59
2022/08/09 00:32:51;;;;;;;7.63;5.10;;;16.30;99.90;;;;;;5013740;28;20049;-58
2022/08/09 00:35:17;;;;;;;8.13;5.18;;;16.30;99.90;;;;;;5030823;28;20048;-59
2022/08/09 00:37:43;;;;;;;8.15;5.55;;;16.20;99.90;;;;;;5030354;28;20064;-59
2022/08/09 00:40:09;;;;;;;7.90;6.07;;;16.20;99.90;;;;;;5025532;28;20048;-58
2022/08/09 00:42:35;;;;;;;9.77;5.72;;;16.20;99.90;;;;;;5033168;28;20068;-58
2022/08/09 00:45:03;;;;;;;6.18;5.57;;;16.20;99.90;;;;;;5030620;28;20164;-58
2022/08/09 00:47:29;;;;;;;9.68;6.05;;;16.00;99.90;;;;;;5031256;28;20077;-58
2022/08/09 00:49:54;;;;;;;7.95;6.07;;;16.10;99.90;;;;;;5031469;28;20139;-58
2022/08/09 00:52:21;;;;;;;8.93;5.90;;;16.00;99.90;;;;;;5031055;28;20375;-59
2022/08/09 00:54:49;;;;;;;9.90;6.15;;;16.00;99.90;;;;;;5013139;28;20036;-58
2022/08/09 00:57:15;;;;;;;8.10;5.95;;;16.00;99.90;;;;;;5031158;28;20049;-58
2022/08/09 00:59:42;;;;;;;7.78;6.13;;;16.00;99.90;;;;;;5045411;28;20033;-58
2022/08/09 01:02:08;;;;;;;9.43;5.68;;;15.90;99.90;;;;;;5024212;28;20045;-59
2022/08/09 01:04:45;;;;;;;9.30;6.00;;;15.90;99.90;;;;;;5016542;28;20366;-58
2022/08/09 01:07:34;;;;;;;9.10;6.10;;;16.00;99.90;;;;;;5012545;28;20034;-58
2022/08/09 01:10:17;;;;;;;7.85;5.60;;;15.90;99.90;;;;;;5045012;28;20231;-58
2022/08/09 01:12:55;;;;;;;8.50;6.18;;;15.90;99.90;;;;;;5030822;28;20060;-58
2022/08/09 01:15:26;;;;;;;8.63;5.90;;;15.90;99.90;;;;;;5020215;28;20044;-58
2022/08/09 01:18:00;;;;;;;7.88;6.10;;;15.90;99.90;;;;;;5030561;28;20053;-58
2022/08/09 01:20:32;;;;;;;;;;;15.90;99.90;;;;;;5013945;28;20458;-58
2022/08/09 01:23:24;;;;;;;8.75;6.35;;;15.80;99.90;;;;;;5044338;28;19976;-58
2022/08/09 01:26:07;;;;;;;10.60;6.85;;;15.70;99.90;;;;;;5023538;28;20041;-58
2022/08/09 01:28:37;;;;;;;9.18;6.60;;;15.70;99.90;;;;;;5030445;28;20439;-59
2022/08/09 01:31:09;;;;;;;9.40;6.97;;;15.70;99.90;;;;;;5030975;28;20037;-58
2022/08/09 01:33:39;;;;;;;8.93;6.45;;;15.70;99.90;;;;;;5044203;28;20037;-58
2022/08/09 01:36:12;;;;;;;10.65;6.68;;;15.60;99.90;;;;;;5039268;28;20045;-58
2022/08/09 01:38:45;;;;;;;9.13;6.90;;;15.60;99.90;;;;;;5031301;28;20041;-59
2022/08/09 01:41:17;;;;;;;10.27;6.95;;;15.60;99.90;;;;;;5030933;28;20098;-58
2022/08/09 01:43:49;;;;;;;9.95;7.15;;;15.50;99.90;;;;;;5030521;28;20038;-58
2022/08/09 01:46:16;;;;;;;9.43;7.45;;;15.50;99.90;;;;;;5030247;28;20584;-58
2022/08/09 01:48:45;;;;;;;8.05;6.97;;;15.50;99.90;;;;;;5031223;28;20104;-58
2022/08/09 01:51:12;;;;;;;10.00;6.78;;;15.50;99.90;;;;;;5038953;28;20045;-58
2022/08/09 01:53:38;;;;;;;8.50;7.13;;;15.40;99.90;;;;;;5043392;28;20112;-58
2022/08/09 01:56:07;;;;;;;8.95;6.93;;;15.40;99.90;;;;;;5033372;28;20049;-58
2022/08/09 01:58:33;;;;;;;9.57;7.18;;;15.40;99.90;;;;;;5034533;28;20116;-58
2022/08/09 02:01:01;;;;;;;10.13;6.82;;;15.40;99.90;;;;;;5034131;28;20111;-58
2022/08/09 02:03:30;;;;;;;8.93;7.13;;;15.30;99.90;;;;;;5041378;28;20032;-58
2022/08/09 02:05:57;;;;;;;8.40;7.00;;;15.40;99.90;;;;;;5034651;28;20122;-59
2022/08/09 02:08:24;;;;;;;12.60;7.13;;;15.30;99.90;;;;;;5020277;28;20072;-59
2022/08/09 02:10:53;;;;;;;9.52;6.72;;;15.30;99.90;;;;;;5021968;28;20038;-58
2022/08/09 02:13:22;;;;;;;8.25;6.50;;;15.30;99.90;;;;;;5032416;28;20167;-59
2022/08/09 02:15:50;;;;;;;10.27;7.05;;;15.30;99.90;;;;;;5032710;28;20038;-59
2022/08/09 02:18:27;;;;;;;8.50;6.95;;;15.30;99.90;;;;;;5037302;28;20044;-58
2022/08/09 02:21:01;;;;;;;8.80;6.55;;;15.20;99.90;;;;;;5043032;28;20431;-58
2022/08/09 02:23:34;;;;;;;9.55;6.97;;;15.30;99.90;;;;;;5032819;28;20136;-58
2022/08/09 02:26:01;;;;;;;8.05;6.65;;;15.20;99.90;;;;;;5043463;28;20041;-58
2022/08/09 02:28:36;;;;;;;9.18;6.72;;;15.20;99.90;;;;;;5033916;28;20037;-58
2022/08/09 02:31:07;;;;;;;8.32;6.65;;;15.10;99.90;;;;;;5020485;28;20115;-58
2022/08/09 02:33:37;;;;;;;7.88;6.55;;;15.10;99.90;;;;;;5033309;28;20161;-58
2022/08/09 02:36:06;;;;;;;8.13;6.47;;;15.10;99.90;;;;;;5042632;28;20108;-58
2022/08/09 02:38:41;;;;;;;9.88;6.95;;;15.10;99.90;;;;;;5045784;28;20041;-59
2022/08/09 02:41:11;;;;;;;10.15;7.05;;;15.10;99.90;;;;;;5033942;28;20038;-58
2022/08/09 02:43:41;;;;;;;10.10;6.70;;;15.00;99.90;;;;;;5045198;28;20056;-58
2022/08/09 02:46:09;;;;;;;10.38;6.93;;;15.00;99.90;;;;;;5033978;28;20366;-62
2022/08/09 02:48:36;;;;;;;9.43;6.82;;;15.00;99.90;;;;;;5033154;28;20482;-58
2022/08/09 02:51:05;;;;;;;8.27;7.05;;;15.00;99.90;;;;;;5033463;28;20385;-58
2022/08/09 02:53:35;;;;;;;8.70;6.80;;;14.90;99.90;;;;;;5032861;28;20037;-58
2022/08/09 02:56:03;;;;;;;9.63;6.82;;;14.90;99.90;;;;;;5038757;28;20042;-58
2022/08/09 02:58:30;;;;;;;7.95;7.10;;;14.90;99.90;;;;;;5041726;28;20374;-58
2022/08/09 03:00:57;;;;;;;9.73;7.38;;;14.90;99.90;;;;;;5019757;28;20743;-58
2022/08/09 03:03:24;;;;;;;10.93;7.25;;;14.90;99.90;;;;;;5032358;28;20370;-59
2022/08/09 03:05:52;;;;;;;9.70;7.18;;;14.90;99.90;;;;;;5032030;28;20426;-58
2022/08/09 03:08:20;;;;;;;8.20;7.00;;;14.90;99.90;;;;;;5032877;28;20103;-58
2022/08/09 03:10:48;;;;;;;7.57;6.47;;;14.80;99.90;;;;;;5027227;28;20041;-59
2022/08/09 03:13:15;;;;;;;7.80;6.65;;;14.80;99.90;;;;;;5048214;28;20538;-58
2022/08/09 03:15:42;;;;;;;8.07;6.90;;;14.80;99.90;;;;;;5032300;28;20029;-58
2022/08/09 03:18:10;;;;;;;8.13;6.53;;;14.80;99.90;;;;;;5046570;28;20537;-58
2022/08/09 03:20:41;;;;;;;8.30;6.78;;;14.80;99.90;;;;;;5041040;28;20347;-58
2022/08/09 03:23:09;;;;;;;9.57;6.68;;;14.80;99.90;;;;;;5050581;28;20502;-58
2022/08/09 03:25:35;;;;;;;8.88;6.32;;;14.70;99.90;;;;;;5047367;28;20043;-58
2022/08/09 03:28:03;;;;;;;8.57;6.40;;;14.60;99.90;;;;;;5043061;28;20130;-58
2022/08/09 03:30:29;;;;;;;9.32;7.00;;;14.70;99.90;;;;;;5046562;28;20041;-58
2022/08/09 03:32:57;;;;;;;8.63;6.93;;;14.70;99.90;;;;;;5032268;28;20099;-58
2022/08/09 03:35:24;;;;;;;8.25;6.82;;;14.70;99.90;;;;;;5031606;28;20136;-58
2022/08/09 03:37:50;;;;;;;7.82;6.63;;;14.70;99.90;;;;;;5032447;28;20053;-58
2022/08/09 03:40:15;;;;;;;9.10;7.28;;;14.70;99.90;;;;;;5032156;28;20052;-58
2022/08/09 03:42:41;;;;;;;9.88;7.35;;;14.60;99.90;;;;;;5036367;28;20342;-58
2022/08/09 03:45:07;;;;;;;8.65;7.18;;;14.60;99.90;;;;;;5041157;28;20382;-58
2022/08/09 03:47:33;;;;;;;10.15;7.93;;;14.50;99.90;;;;;;5032278;28;20397;-58
2022/08/09 03:50:01;;;;;;;8.77;7.70;;;14.50;99.90;;;;;;5032323;28;20048;-58
2022/08/09 03:52:29;;;;;;;10.63;7.63;;;14.40;99.90;;;;;;5032673;28;20140;-58
2022/08/09 03:54:58;;;;;;;10.63;7.95;;;14.50;99.90;;;;;;5052114;28;20429;-58
2022/08/09 03:57:24;;;;;;;9.60;7.18;;;14.40;99.90;;;;;;5039796;28;20116;-58
2022/08/09 03:59:52;;;;;;;11.40;7.07;;;14.40;99.90;;;;;;5032106;28;20486;-58
2022/08/09 04:02:18;;;;;;;10.60;8.00;;;14.40;99.90;;;;;;5043408;28;20051;-59
2022/08/09 04:04:45;;;;;;;9.82;7.30;;;14.40;99.90;;;;;;5033837;28;20337;-58
2022/08/09 04:07:11;;;;;;;8.88;7.68;;;14.40;99.90;;;;;;5031164;28;20289;-58
2022/08/09 04:09:36;;;;;;;9.93;8.55;;;14.40;99.90;;;;;;5032329;28;20042;-59
2022/08/09 04:12:08;;;;;;;10.43;8.52;;;14.40;99.90;;;;;;5031789;28;20164;-58
2022/08/09 04:14:34;;;;;;;10.35;8.07;;;14.40;99.90;;;;;;5032479;28;20438;-58
2022/08/09 04:17:00;;;;;;;11.00;7.95;;;14.30;99.90;;;;;;5033674;28;20057;-59
2022/08/09 04:19:26;;;;;;;9.68;7.45;;;14.40;99.90;;;;;;5031755;28;20121;-59
2022/08/09 04:21:51;;;;;;;9.57;8.32;;;14.30;99.90;;;;;;5031425;28;20068;-59
2022/08/09 04:24:17;;;;;;;9.40;7.47;;;14.40;99.90;;;;;;5037890;28;20040;-59
2022/08/09 04:26:43;;;;;;;9.15;7.50;;;14.40;99.90;;;;;;5036194;28;20041;-59
2022/08/09 04:29:09;;;;;;;9.85;7.13;;;14.30;99.90;;;;;;5033200;28;20463;-59
2022/08/09 04:31:34;;;;;;;10.32;7.43;;;14.40;99.90;;;;;;5040333;28;20524;-59
2022/08/09 04:34:00;;;;;;;9.07;7.15;;;14.30;99.90;;;;;;5031061;28;20137;-59
2022/08/09 04:36:27;;;;;;;10.50;7.75;;;14.30;99.90;;;;;;5039129;28;20362;-59
2022/08/09 04:38:55;;;;;;;10.82;7.78;;;14.50;99.90;;;;;;5035919;28;20378;-60
2022/08/09 04:41:22;;;;;;;11.70;7.45;;;14.40;99.90;;;;;;5014296;28;20042;-59
2022/08/09 04:43:48;;;;;;;10.93;7.53;;;14.40;99.90;;;;;;5030923;28;20072;-58
2022/08/09 04:46:13;;;;;;;8.95;7.28;;;14.60;99.90;;;;;;5030016;28;20423;-59
2022/08/09 04:48:39;;;;;;;9.52;7.20;;;15.00;99.90;;;;;;5043098;28;20120;-60
2022/08/09 04:51:05;;;;;;;9.63;7.15;;;15.40;99.90;;;;;;5016209;28;20041;-59
2022/08/09 04:53:31;;;;;;;8.13;6.47;;;15.60;99.90;;;;;;5040294;28;20442;-59
2022/08/09 04:55:57;;;;;;;10.57;6.93;;;15.90;99.90;;;;;;5026348;28;20136;-60
2022/08/09 04:58:23;;;;;;;9.32;7.10;;;16.30;99.90;;;;;;5043302;28;20472;-59
2022/08/09 05:00:48;;;;;;;8.10;6.63;;;16.70;99.90;;;;;;5031470;28;20059;-60
2022/08/09 05:03:14;;;;;;;6.35;5.70;;;17.20;99.90;;;;;;5044739;28;20092;-60
2022/08/09 05:05:40;;;;;;;8.98;6.78;;;17.60;99.90;;;;;;5030545;28;20034;-59
2022/08/09 05:08:05;;;;;;;9.05;6.13;;;17.90;99.90;;;;;;5030970;28;20030;-60
2022/08/09 05:10:31;;;;;;;7.97;5.82;;;18.40;99.90;;;;;;5031582;28;20426;-60
2022/08/09 05:12:56;;;;;;;7.22;5.35;;;18.90;99.90;;;;;;5046092;28;20041;-60
2022/08/09 05:15:23;;;;;;;7.15;5.30;;;19.40;99.90;;;;;;5042651;28;20102;-60
2022/08/09 05:17:49;;;;;;;6.70;5.40;;;19.80;99.90;;;;;;5030748;28;20128;-59
2022/08/09 05:20:15;;;;;;;6.75;4.88;;;20.00;99.90;;;;;;5030824;28;20046;-60
2022/08/09 05:22:41;;;;;;;6.22;4.70;;;20.40;99.90;;;;;;5030665;28;20064;-59
2022/08/09 05:25:07;;;;;;;8.30;5.05;;;20.60;99.90;;;;;;5045885;28;20049;-59
2022/08/09 05:27:32;;;;;;;7.22;5.22;;;20.80;99.90;;;;;;5040138;28;20160;-61
2022/08/09 05:29:58;;;;;;;7.30;4.90;;;20.90;99.90;;;;;;5043023;28;20116;-59
2022/08/09 05:32:24;;;;;;;7.35;5.00;;;21.00;99.90;;;;;;5038094;28;20033;-59
2022/08/09 05:34:49;;;;;;;8.10;5.03;;;20.80;99.90;;;;;;5054816;28;20079;-60
2022/08/09 05:37:15;;;;;;;6.75;4.97;;;20.40;99.90;;;;;;5035300;28;20045;-60
2022/08/09 05:39:41;;;;;;;7.88;4.60;;;20.40;99.90;;;;;;5034975;28;20568;-60
2022/08/09 05:42:07;;;;;;;7.25;4.95;;;20.70;99.90;;;;;;5034383;28;20037;-60
2022/08/09 05:44:32;;;;;;;8.25;5.03;;;20.80;99.90;;;;;;5048207;28;20497;-60
2022/08/09 05:46:58;;;;;;;6.45;4.85;;;21.40;99.90;;;;;;5033803;28;20037;-60
2022/08/09 05:49:24;;;;;;;6.63;4.55;;;21.70;99.90;;;;;;5038157;28;20037;-60
2022/08/09 05:51:50;;;;;;;8.32;4.53;;;22.00;99.90;;;;;;5054299;28;20040;-60
2022/08/09 05:54:15;;;;;;;5.93;4.32;;;22.10;99.90;;;;;;5038064;28;20041;-61
2022/08/09 05:56:41;;;;;;;6.30;5.05;;;22.30;99.90;;;;;;5041338;28;20025;-60
2022/08/09 05:59:07;;;;;;;7.68;5.07;;;22.70;99.90;;;;;;5040765;28;20041;-60
2022/08/09 06:01:32;;;;;;;6.60;4.22;;;23.00;99.90;;;;;;5039650;28;20033;-59
2022/08/09 06:03:58;;;;;;;6.68;5.20;;;23.30;99.90;;;;;;5042286;28;20091;-60
2022/08/09 06:06:24;;;;;;;6.78;4.68;;;23.50;99.90;;;;;;5032901;28;20095;-60
2022/08/09 06:08:50;;;;;;;7.10;4.95;;;23.50;99.90;;;;;;5043636;28;20044;-60
2022/08/09 06:11:16;;;;;;;6.63;4.55;;;23.70;99.90;;;;;;5037934;28;20462;-60
2022/08/09 06:13:42;;;;;;;5.00;4.07;;;23.60;99.90;;;;;;5033302;28;20084;-59
2022/08/09 06:16:09;;;;;;;7.38;4.70;;;23.90;99.90;;;;;;5037198;28;20474;-60
2022/08/09 06:18:35;;;;;;;6.15;4.22;;;23.90;99.90;;;;;;5025990;28;20051;-58
2022/08/09 06:21:01;;;;;;;6.07;4.78;;;23.80;99.90;;;;;;5041803;28;20049;-58
2022/08/09 06:23:31;;;;;;;8.73;5.13;;;24.00;99.90;;;;;;5047182;28;20091;-60
2022/08/09 06:25:57;;;;;;;6.63;4.40;;;24.40;99.90;;;;;;5033628;28;20037;-58
2022/08/09 06:28:23;;;;;;;6.47;4.53;;;24.40;99.90;;;;;;5046168;28;20094;-58
2022/08/09 06:30:49;;;;;;;7.18;4.28;;;24.80;99.90;;;;;;5034946;28;20117;-58
2022/08/09 06:33:15;;;;;;;6.53;4.18;;;24.90;99.90;;;;;;5015076;28;20047;-59
2022/08/09 06:35:40;;;;;;;7.13;4.13;;;24.80;99.90;;;;;;5027978;28;20033;-59
2022/08/09 06:38:06;;;;;;;5.90;3.90;;;24.60;99.90;;;;;;5052785;28;20037;-59
2022/08/09 06:40:32;;;;;;;5.78;3.95;;;24.60;99.90;;;;;;5052166;28;20033;-59
2022/08/09 06:42:59;;;;;;;5.05;4.15;;;24.70;99.90;;;;;;5032951;28;20530;-58
2022/08/09 06:45:26;;;;;;;6.28;4.35;;;24.80;99.90;;;;;;5032702;28;20041;-59
2022/08/09 06:47:52;;;;;;;6.30;4.10;;;24.80;99.90;;;;;;5028496;28;20101;-59
2022/08/09 06:50:18;;;;;;;6.10;4.25;;;24.90;99.90;;;;;;5024825;28;20029;-59
2022/08/09 06:52:47;;;;;;;5.40;3.67;;;24.70;99.90;;;;;;5018879;28;20084;-59
2022/08/09 06:55:20;;;;;;;5.68;3.58;;;24.60;99.90;;;;;;5023893;28;20072;-59
2022/08/09 06:57:46;;;;;;;5.68;3.90;;;24.60;99.90;;;;;;5032438;28;20041;-59
2022/08/09 07:00:13;;;;;;;6.90;3.85;;;24.80;99.90;;;;;;5044717;28;20068;-59
2022/08/09 07:02:39;;;;;;;5.90;3.60;;;25.00;99.90;;;;;;5046167;28;20037;-59
2022/08/09 07:05:05;;;;;;;6.55;3.78;;;25.10;99.90;;;;;;5033288;28;20040;-59
2022/08/09 07:07:30;;;;;;;5.72;3.53;;;25.00;99.90;;;;;;5044226;28;20157;-59
2022/08/09 07:09:56;;;;;;;5.50;3.42;;;24.90;99.90;;;;;;5038662;28;20037;-59
2022/08/09 07:12:22;;;;;;;5.97;3.42;;;24.70;99.90;;;;;;5041953;28;20418;-59
2022/08/09 07:14:48;;;;;;;5.22;3.30;;;24.60;99.90;;;;;;5018306;28;21399;-59
2022/08/09 07:17:14;;;;;;;5.88;3.65;;;24.70;99.90;;;;;;5016893;28;20652;-59
2022/08/09 07:19:40;;;;;;;6.85;3.70;;;24.40;99.90;;;;;;5047635;28;20124;-59
2022/08/09 07:22:06;;;;;;;4.63;3.20;;;24.40;99.90;;;;;;5045433;28;20478;-58
2022/08/09 07:24:32;;;;;;;4.93;3.05;;;24.30;99.90;;;;;;5028103;28;20071;-60
2022/08/09 07:26:59;;;;;;;4.15;2.70;;;24.40;99.90;;;;;;5036817;28;20458;-59
2022/08/09 07:29:25;;;;;;;5.90;2.90;;;24.40;99.90;;;;;;5032805;28;20467;-59
2022/08/09 07:31:51;;;;;;;5.13;2.63;;;24.20;99.90;;;;;;5032322;28;20045;-59
2022/08/09 07:34:17;;;;;;;4.63;2.50;;;23.80;99.90;;;;;;5051702;28;20036;-59
2022/08/09 07:36:43;;;;;;;7.78;2.83;;;23.50;99.90;;;;;;5049895;28;20052;-59
2022/08/09 07:39:08;;;;;;;4.53;2.58;;;23.20;99.90;;;;;;5035382;28;20040;-59
2022/08/09 07:41:34;;;;;;;4.38;2.72;;;22.90;99.90;;;;;;5041675;28;20060;-59
2022/08/09 07:44:00;;;;;;;3.83;2.42;;;22.70;99.90;;;;;;5037944;28;20065;-59
2022/08/09 07:46:26;;;;;;;4.68;2.30;;;22.50;99.90;;;;;;5047946;28;20032;-59
2022/08/09 07:48:51;;;;;;;3.55;1.80;;;22.40;99.90;;;;;;5039116;28;20037;-59
2022/08/09 07:51:17;;;;;;;5.63;2.20;;;22.20;99.90;;;;;;5028846;28;20041;-59
2022/08/09 07:53:44;;;;;;;3.88;2.00;;;22.20;99.90;;;;;;5014184;28;20346;-59
2022/08/09 07:56:09;;;;;;;4.80;1.73;;;22.20;99.90;;;;;;5017240;28;20044;-59
2022/08/09 07:58:35;;;;;;;4.22;2.25;;;22.30;99.90;;;;;;5042789;28;20048;-59
2022/08/09 08:01:01;;;;;;;2.60;1.70;;;22.30;99.90;;;;;;5033477;28;20136;-59
2022/08/09 08:03:26;;;;;;;3.08;1.52;;;22.30;99.90;;;;;;5051624;28;20037;-59
2022/08/09 08:05:52;;;;;;;2.83;1.48;;;22.40;99.90;;;;;;5037632;28;20052;-59
2022/08/09 08:08:18;;;;;;;4.40;1.80;;;22.50;99.90;;;;;;5050966;28;20124;-59
2022/08/09 08:10:44;;;;;;;2.47;1.80;;;22.50;99.90;;;;;;5051969;28;20033;-59
2022/08/09 08:13:09;;;;;;;2.03;1.50;;;22.60;99.90;;;;;;5037629;28;20076;-59
2022/08/09 08:15:35;;;;;;;5.15;1.52;;;22.60;99.90;;;;;;5035536;28;20422;-60
2022/08/09 08:18:01;;;;;;;2.95;1.60;;;22.60;99.90;;;;;;5032387;28;20358;-59
2022/08/09 08:20:28;;;;;;;3.35;1.70;;;22.60;99.90;;;;;;5044568;28;20041;-59
2022/08/09 08:22:53;;;;;;;3.42;1.75;;;22.70;99.90;;;;;;5031251;28;20042;-59
2022/08/09 08:25:19;;;;;;;6.07;2.10;;;22.70;99.90;;;;;;5044977;28;20118;-59
2022/08/09 08:27:45;;;;;;;4.28;1.90;;;22.70;99.90;;;;;;5038876;28;20164;-59
2022/08/09 08:30:12;;;;;;;4.53;1.98;;;22.70;99.90;;;;;;5051891;28;20091;-59
2022/08/09 08:32:39;;;;;;;2.28;1.73;;;22.60;99.90;;;;;;5051127;28;20040;-59
2022/08/09 08:35:05;;;;;;;3.42;1.50;;;22.60;99.90;;;;;;5051267;28;20052;-59
2022/08/09 08:37:31;;;;;;;4.55;1.60;;;22.80;99.90;;;;;;5035090;28;20051;-59
2022/08/09 08:39:57;;;;;;;3.15;1.35;;;22.90;99.90;;;;;;5051138;28;20454;-61
2022/08/09 08:42:23;;;;;;;3.17;1.50;;;22.90;99.90;;;;;;5050785;28;20041;-59
2022/08/09 08:44:54;;;;;;;2.55;1.13;;;23.00;99.90;;;;;;5033569;28;20122;-59
2022/08/09 08:47:20;;;;;;;2.78;1.20;;;23.00;99.90;;;;;;5019645;28;20077;-59
2022/08/09 08:49:47;;;;;;;3.92;1.42;;;23.10;99.90;;;;;;5051342;28;20061;-59
2022/08/09 08:52:18;;;;;;;1.70;1.17;;;23.20;99.90;;;;;;5038096;28;20357;-59
2022/08/09 08:54:44;;;;;;;1.65;1.05;;;23.00;99.90;;;;;;5036607;28;20036;-59
2022/08/09 08:57:10;;;;;;;2.60;1.30;;;23.10;99.90;;;;;;5045956;28;20043;-59
2022/08/09 08:59:35;;;;;;;2.35;1.27;;;23.20;99.90;;;;;;5046620;28;20366;-59
2022/08/09 09:02:03;;;;;;;3.38;1.20;;;23.30;99.90;;;;;;5040278;28;20052;-60
2022/08/09 09:04:32;;;;;;;2.95;1.38;;;23.20;99.90;;;;;;5031642;28;20048;-59
2022/08/09 09:07:02;;;;;;;2.47;1.30;;;23.20;99.90;;;;;;5038048;28;20072;-59
2022/08/09 09:09:29;;;;;;;1.73;1.02;;;23.30;99.90;;;;;;5050953;28;20037;-60
2022/08/09 09:11:56;;;;;;;2.13;1.10;;;23.20;99.90;;;;;;5043323;28;20389;-60
2022/08/09 09:14:24;;;;;;;2.65;1.13;;;23.20;99.90;;;;;;5044074;28;20460;-59
2022/08/09 09:16:50;;;;;;;1.48;1.00;;;23.20;99.90;;;;;;5042107;28;20057;-61
2022/08/09 09:19:16;;;;;;;1.52;1.20;;;23.30;99.90;;;;;;5051097;28;20135;-58
2022/08/09 09:22:07;;;;;;;3.90;1.42;;;23.30;99.90;;;;;;5050386;28;20049;-59
2022/08/09 09:24:47;;;;;;;4.20;1.50;;;23.20;99.90;;;;;;5050983;28;20124;-59
2022/08/09 09:27:16;;;;;;;3.15;1.30;;;23.20;99.90;;;;;;5031817;28;20079;-59
2022/08/09 09:29:43;;;;;;;4.18;1.38;;;23.30;99.90;;;;;;5051018;28;20106;-59
2022/08/09 09:32:13;;;;;;;4.45;1.55;;;23.30;99.90;;;;;;5050534;28;20040;-59
2022/08/09 09:34:41;;;;;;;2.10;1.13;;;23.30;99.90;;;;;;5050949;28;20361;-60
2022/08/09 09:37:06;;;;;;;1.88;1.00;;;23.30;99.90;;;;;;5035478;28;20045;-59
2022/08/09 09:39:32;;;;;;;2.65;1.30;;;23.10;99.90;;;;;;5050591;28;20106;-59
2022/08/09 09:41:58;;;;;;;1.55;1.17;;;22.90;99.90;;;;;;5032917;28;20092;-60
2022/08/09 09:44:35;;;;;;;1.70;1.40;;;22.80;99.90;;;;;;5036809;28;20056;-59
2022/08/09 09:47:15;;;;;;;1.20;1.00;;;22.90;99.90;;;;;;5047702;28;20351;-59
2022/08/09 09:49:49;;;;;;;0.93;0.93;;;23.00;99.90;;;;;;5050060;28;20044;-59
2022/08/09 09:52:15;;;;;;;1.20;1.00;;;23.10;99.90;;;;;;5049258;28;20354;-59
2022/08/09 09:54:42;;;;;;;2.45;1.30;;;23.00;99.90;;;;;;5050132;28;20124;-59
2022/08/09 09:57:26;;;;;;;2.00;0.93;;;23.20;99.90;;;;;;5034792;28;20413;-59
2022/08/09 09:59:53;;;;;;;1.63;0.90;;;23.40;99.90;;;;;;5025228;28;20045;-60
2022/08/09 10:02:20;;;;;;;2.33;1.30;;;23.50;99.90;;;;;;5022108;28;20492;-59
2022/08/09 10:05:06;;;;;;;1.48;0.88;;;23.60;99.90;;;;;;5047801;28;20033;-59
2022/08/09 10:07:31;;;;;;;1.40;1.02;;;23.70;99.90;;;;;;5044177;28;20033;-59
2022/08/09 10:09:58;;;;;;;1.60;1.00;;;23.80;99.90;;;;;;5037466;28;20117;-59
2022/08/09 10:12:35;;;;;;;2.75;1.00;;;23.80;99.90;;;;;;5042885;28;20048;-59
2022/08/09 10:15:15;;;;;;;2.67;1.10;;;24.00;99.90;;;;;;5052291;28;20452;-59
2022/08/09 10:17:50;;;;;;;3.08;1.20;;;24.10;99.90;;;;;;5045042;28;20057;-59
2022/08/09 10:20:16;;;;;;;3.50;1.33;;;24.20;99.90;;;;;;5039894;28;20132;-59
2022/08/09 10:22:43;;;;;;;2.53;1.15;;;24.30;99.90;;;;;;5052874;28;20128;-59
2022/08/09 10:25:09;;;;;;;2.47;0.90;;;24.30;99.90;;;;;;5049685;28;20439;-59
2022/08/09 10:27:35;;;;;;;1.67;1.00;;;24.60;99.90;;;;;;5039091;28;20358;-59
2022/08/09 10:30:03;;;;;;;1.25;0.82;;;24.70;99.90;;;;;;5041853;28;20045;-59
2022/08/09 10:32:29;;;;;;;1.67;0.82;;;24.70;99.90;;;;;;5033356;28;20060;-59
2022/08/09 10:34:55;;;;;;;4.35;1.13;;;24.80;99.90;;;;;;5033790;28;20116;-59
2022/08/09 10:37:22;;;;;;;1.70;0.80;;;24.80;99.90;;;;;;5019161;28;20348;-59
2022/08/09 10:39:49;;;;;;;2.35;0.80;;;24.90;99.90;;;;;;5033621;28;20364;-59
2022/08/09 10:42:14;;;;;;;1.90;1.00;;;24.90;99.90;;;;;;5034204;28;20115;-60
2022/08/09 10:44:43;;;;;;;1.17;0.77;;;25.10;99.70;;;;;;5029488;28;20459;-59
2022/08/09 10:47:30;;;;;;;2.95;0.90;;;25.00;99.90;;;;;;5032478;28;20037;-59
2022/08/09 10:50:05;;;;;;;3.53;1.00;;;25.00;99.90;;;;;;5021679;28;20038;-59
2022/08/09 10:52:43;;;;;;;1.15;0.80;;;25.20;99.60;;;;;;5032675;28;20058;-60
2022/08/09 10:55:37;;;;;;;1.30;0.85;;;25.20;99.30;;;;;;5033201;28;20552;-59
2022/08/09 10:58:03;;;;;;;8.07;1.48;;;25.20;98.90;;;;;;5036107;28;20354;-61
2022/08/09 11:00:42;;;;;;;1.35;0.80;;;25.20;99.20;;;;;;5019617;28;20071;-60
2022/08/09 11:03:25;;;;;;;0.98;0.80;;;25.20;99.30;;;;;;5030485;28;20123;-59
2022/08/09 11:06:20;;;;;;;1.40;0.93;;;25.30;98.90;;;;;;5030752;28;20045;-59
2022/08/09 11:08:47;;;;;;;1.35;0.90;;;25.30;98.60;;;;;;5031116;28;20032;-59
2022/08/09 11:11:14;;;;;;;2.75;0.75;;;25.10;99.00;;;;;;5051971;28;20037;-59
2022/08/09 11:13:41;;;;;;;2.33;0.90;;;25.10;99.30;;;;;;5040305;28;20044;-59
2022/08/09 11:16:39;;;;;;;1.65;1.10;;;25.20;99.10;;;;;;5038896;28;20124;-59
2022/08/09 11:19:06;;;;;;;1.17;0.70;;;25.30;99.20;;;;;;4963852;28;20053;-60
2022/08/09 11:21:52;;;;;;;2.42;1.40;;;25.30;99.40;;;;;;5027890;28;20064;-59
2022/08/09 11:24:20;;;;;;;1.20;1.10;;;25.40;99.00;;;;;;5026197;28;20476;-59
2022/08/09 11:26:49;;;;;;;1.83;0.90;;;25.50;98.70;;;;;;5040748;28;20037;-59
2022/08/09 11:29:53;;;;;;;0.60;0.60;;;25.40;99.10;;;;;;5034874;28;20079;-59
2022/08/09 11:32:52;;;;;;;0.95;0.88;;;25.40;99.20;;;;;;5035218;28;20374;-59
2022/08/09 11:35:27;;;;;;;1.48;0.77;;;25.60;98.90;;;;;;5045891;28;20486;-59
2022/08/09 11:37:56;;;;;;;2.05;0.90;;;25.60;98.80;;;;;;5031774;28;20478;-59
2022/08/09 11:40:22;;;;;;;1.88;0.85;;;25.50;99.10;;;;;;5045896;28;20068;-59
2022/08/09 11:42:50;;;;;;;1.33;0.98;;;25.40;99.20;;;;;;5046807;28;20462;-59
2022/08/09 11:45:20;;;;;;;1.40;0.90;;;25.40;99.10;;;;;;5014876;28;20045;-60
2022/08/09 11:47:51;;;;;;;3.83;1.30;;;25.70;98.80;;;;;;5045534;28;20191;-59
2022/08/09 11:50:17;;;;;;;0.93;0.80;;;25.60;98.90;;;;;;5032310;28;20033;-59
2022/08/09 11:52:58;;;;;;;1.05;0.80;;;25.80;98.40;;;;;;5027988;28;20045;-59
2022/08/09 11:55:33;;;;;;;0.90;0.90;;;25.80;98.70;;;;;;5032254;28;20048;-59
2022/08/09 11:58:00;;;;;;;1.48;1.02;;;25.70;98.50;;;;;;5029920;28;20047;-60
2022/08/09 12:00:29;;;;;;;1.67;0.90;;;25.70;98.80;;;;;;5024822;28;20229;-60
2022/08/09 12:02:56;;;;;;;3.30;1.13;;;25.50;98.90;;;;;;5048696;28;20040;-59
2022/08/09 12:05:33;;;;;;;3.10;0.80;;;25.80;98.70;;;;;;5041072;28;20063;-60
2022/08/09 12:07:59;;;;;;;1.73;0.95;;;25.90;98.70;;;;;;5030831;28;20333;-59
2022/08/09 12:10:25;;;;;;;1.45;0.90;;;26.00;98.40;;;;;;5025984;28;20033;-59
2022/08/09 12:12:51;;;;;;;1.02;0.90;;;26.10;98.20;;;;;;5031511;28;20171;-59
2022/08/09 12:15:25;;;;;;;1.45;0.90;;;26.10;98.20;;;;;;5014197;28;20350;-60
2022/08/09 12:17:52;;;;;;;1.73;1.00;;;26.30;98.10;;;;;;5031054;28;20050;-60
2022/08/09 12:20:20;;;;;;;2.00;1.05;;;26.40;97.70;;;;;;5014242;28;20044;-59
2022/08/09 12:22:47;;;;;;;1.55;1.08;;;26.50;97.50;;;;;;5019052;28;20077;-60
2022/08/09 12:25:16;;;;;;;1.00;0.82;;;26.40;97.50;;;;;;5044099;28;20059;-59
2022/08/09 12:27:43;;;;;;;1.48;1.00;;;26.40;97.60;;;;;;5037762;28;20119;-59
2022/08/09 12:30:10;;;;;;;0.60;0.60;;;26.50;97.40;;;;;;5051807;28;20049;-60
2022/08/09 12:32:36;;;;;;;1.58;0.90;;;26.50;97.40;;;;;;5051167;28;20096;-61
2022/08/09 12:35:05;;;;;;;1.75;0.85;;;26.60;97.50;;;;;;5021908;28;20053;-60
2022/08/09 12:37:37;;;;;;;2.17;0.93;;;26.70;97.10;;;;;;5033701;28;20045;-60
2022/08/09 12:40:05;;;;;;;2.22;0.80;;;26.50;97.40;;;;;;5040874;28;20029;-60
2022/08/09 12:42:31;;;;;;;1.02;0.80;;;26.40;97.40;;;;;;5031039;28;20048;-59
2022/08/09 12:44:57;;;;;;;0.70;0.70;;;26.50;97.30;;;;;;5028513;28;20450;-60
2022/08/09 12:47:23;;;;;;;1.42;0.80;;;26.60;96.90;;;;;;5034852;28;20045;-60
2022/08/09 12:52:47;;;;;;;1.20;0.85;;;26.60;96.90;;;;;;5044883;28;20058;-59
2022/08/09 12:55:33;;;;;;;0.70;0.70;;;26.60;96.70;;;;;;5040880;28;20055;-60